Time;durP1;ratioP1;P1;durP2;ratioP2;P2;SDS_P1;SDS_P2;PMS_P1;PMS_P2;Temp;Humidity;BMP_temperature;BMP_pressure;BME280_temperature;BME280_humidity;BME280_pressure;Samples;Min_cycle;Max_cycle;Signal;HPM_P1;HPM_P2
2022/02/15 00:01:36;;;;;;;13.53;2.52;;;;;;;2.71;100.00;148347.56;1750222;81;21051;-66
2022/02/15 00:04:04;;;;;;;7.75;2.33;;;;;;;2.75;100.00;148357.88;1745806;81;21389;-66
2022/02/15 00:06:31;;;;;;;11.43;2.25;;;;;;;2.78;100.00;148365.66;1746384;81;20955;-60
2022/02/15 00:08:58;;;;;;;9.63;2.33;;;;;;;2.81;100.00;148373.41;1744227;81;21969;-60
2022/02/15 00:11:25;;;;;;;7.25;2.08;;;;;;;2.83;100.00;148378.55;1743080;80;21020;-60
2022/02/15 00:13:51;;;;;;;7.42;1.95;;;;;;;2.88;100.00;148388.86;1744650;81;21036;-61
2022/02/15 00:16:18;;;;;;;6.25;2.30;;;;;;;2.88;100.00;148390.17;1744315;81;21039;-60
2022/02/15 00:18:45;;;;;;;11.65;2.52;;;;;;;2.91;100.00;148396.59;1748621;81;21051;-62
2022/02/15 00:21:12;;;;;;;6.85;2.10;;;;;;;2.91;100.00;148397.91;1749234;81;21629;-61
2022/02/15 00:23:39;;;;;;;6.35;2.08;;;;;;;2.94;100.00;148404.33;1746609;80;21102;-61
2022/02/15 00:26:05;;;;;;;5.87;1.87;;;;;;;2.97;99.24;148412.06;1742928;81;21055;-61
2022/02/15 00:28:33;;;;;;;6.12;2.42;;;;;;;2.98;98.57;148414.64;1746247;81;21063;-61
2022/02/15 00:31:00;;;;;;;6.90;2.17;;;;;;;2.99;97.88;148417.27;1744192;80;21008;-62
2022/02/15 00:33:26;;;;;;;6.05;2.17;;;;;;;3.00;97.44;148419.84;1746491;81;21121;-61
2022/02/15 00:35:56;;;;;;;6.53;2.20;;;;;;;3.01;96.84;148422.42;1748284;81;21243;-61
2022/02/15 00:38:22;;;;;;;9.20;2.00;;;;;;;3.01;96.26;148422.42;1744591;81;21556;-61
2022/02/15 00:40:50;;;;;;;6.92;2.12;;;;;;;3.00;95.72;148421.11;1745686;81;20952;-60
2022/02/15 00:43:17;;;;;;;9.25;2.52;;;;;;;3.02;95.19;148425.00;1747754;81;21047;-60
2022/02/15 00:45:44;;;;;;;5.05;1.95;;;;;;;3.02;94.80;148425.00;1744076;81;22146;-60
2022/02/15 00:48:11;;;;;;;5.45;1.90;;;;;;;3.04;94.22;148430.16;1747753;80;21417;-62
2022/02/15 00:50:39;;;;;;;9.00;1.90;;;;;;;3.05;93.65;148432.73;1749810;80;21051;-60
2022/02/15 00:53:07;;;;;;;6.95;1.98;;;;;;;3.05;93.18;148432.73;1748083;80;21079;-61
2022/02/15 00:55:34;;;;;;;3.25;2.05;;;;;;;3.03;92.78;148427.58;1745579;81;21530;-61
2022/02/15 00:58:00;;;;;;;5.10;1.80;;;;;;;3.03;92.43;148427.58;1746035;80;21805;-60
2022/02/15 01:00:27;;;;;;;5.75;2.20;;;;;;;3.03;92.27;148427.58;1744479;81;20996;-60
2022/02/15 01:02:53;;;;;;;8.15;2.72;;;;;;;3.05;92.04;148432.73;1743712;81;21024;-60
2022/02/15 01:05:20;;;;;;;7.03;2.85;;;;;;;3.07;91.87;148436.58;1743925;81;21115;-62
2022/02/15 01:07:47;;;;;;;6.12;2.00;;;;;;;3.10;91.67;148445.62;1745409;81;21384;-62
2022/02/15 01:10:14;;;;;;;5.90;2.20;;;;;;;3.12;91.24;148450.78;1743572;81;21110;-60
2022/02/15 01:12:41;;;;;;;5.70;1.95;;;;;;;3.15;90.67;148457.25;1742038;81;21004;-61
2022/02/15 01:15:09;;;;;;;8.15;2.00;;;;;;;3.21;90.37;148471.47;1742884;81;21560;-62
2022/02/15 01:17:37;;;;;;;7.47;2.35;;;;;;;3.23;89.86;148477.87;1744709;82;21423;-60
2022/02/15 01:20:07;;;;;;;8.93;2.15;;;;;;;3.25;89.54;148483.03;1743912;82;21000;-61
2022/02/15 01:22:33;;;;;;;5.87;2.25;;;;;;;3.26;89.41;148484.34;1743561;82;21100;-61
2022/02/15 01:25:00;;;;;;;6.17;2.25;;;;;;;3.28;89.24;148489.50;1743761;81;21031;-62
2022/02/15 01:27:27;;;;;;;5.62;1.95;;;;;;;3.30;89.21;148494.67;1753703;81;20973;-60
2022/02/15 01:29:56;;;;;;;8.73;2.25;;;;;;;3.32;89.15;148498.56;1753058;81;21822;-62
2022/02/15 01:32:24;;;;;;;7.17;2.02;;;;;;;3.34;89.12;148504.97;1756518;81;21140;-61
2022/02/15 01:34:50;;;;;;;6.47;2.30;;;;;;;3.38;88.88;148515.30;1752750;81;21893;-63
2022/02/15 01:37:18;;;;;;;5.87;1.87;;;;;;;3.39;88.32;148517.88;1753111;81;21533;-62
2022/02/15 01:39:45;;;;;;;4.25;1.82;;;;;;;3.38;87.65;148515.30;1749391;81;21039;-65
2022/02/15 01:42:11;;;;;;;5.65;1.98;;;;;;;3.37;87.25;148512.72;1753087;81;21579;-62
2022/02/15 01:44:39;;;;;;;4.67;2.10;;;;;;;3.38;86.98;148515.30;1752824;81;21086;-60
2022/02/15 01:47:07;;;;;;;6.45;2.00;;;;;;;3.37;86.86;148512.72;1752604;80;21151;-62
2022/02/15 01:49:34;;;;;;;4.97;1.72;;;;;;;3.37;86.66;148512.72;1738573;81;21021;-61
2022/02/15 01:52:02;;;;;;;5.45;1.92;;;;;;;3.37;86.44;148512.72;1713420;83;21091;-61
2022/02/15 01:54:30;;;;;;;6.87;2.10;;;;;;;3.39;86.52;148517.88;1714546;83;21016;-63
2022/02/15 01:56:57;;;;;;;5.42;2.00;;;;;;;3.43;86.27;148528.23;1708754;83;21073;-62
2022/02/15 01:59:23;;;;;;;7.53;2.55;;;;;;;3.47;85.94;148535.97;1714399;82;21092;-60
2022/02/15 02:01:52;;;;;;;5.22;2.08;;;;;;;3.44;85.65;148530.81;1709205;83;21358;-61
2022/02/15 02:07:04;;;;;;;;;;;;;;;3.42;85.21;148525.61;1716060;83;21606;-60
2022/02/15 02:09:34;;;;;;;9.13;2.05;;;;;;;3.43;84.90;148528.23;1680039;83;20141;-61
2022/02/15 02:12:01;;;;;;;6.75;1.80;;;;;;;3.42;84.52;148524.34;1717710;81;21134;-60
2022/02/15 02:14:29;;;;;;;5.85;1.90;;;;;;;3.41;83.96;148523.03;1677928;83;21085;-60
2022/02/15 02:16:56;;;;;;;5.97;2.12;;;;;;;3.41;83.32;148521.77;1705215;83;21603;-62
2022/02/15 02:19:27;;;;;;;6.37;1.85;;;;;;;3.38;82.95;148515.30;1712937;82;21063;-59
2022/02/15 02:21:56;;;;;;;3.08;1.72;;;;;;;3.36;82.48;148510.14;1714570;83;21470;-60
2022/02/15 02:24:23;;;;;;;4.72;1.60;;;;;;;3.28;81.93;148489.50;1702799;83;21084;-61
2022/02/15 02:26:51;;;;;;;6.92;1.90;;;;;;;3.28;81.93;148489.50;1709525;82;21120;-60
2022/02/15 02:29:18;;;;;;;5.15;1.98;;;;;;;3.27;82.10;148488.19;1693556;83;21534;-61
2022/02/15 02:31:46;;;;;;;4.83;2.05;;;;;;;3.29;82.27;148493.34;1707661;82;21101;-61
2022/02/15 02:34:14;;;;;;;4.45;1.87;;;;;;;3.30;82.42;148495.92;1692341;84;21028;-61
2022/02/15 02:36:44;;;;;;;3.33;1.85;;;;;;;3.30;82.44;148494.67;1708222;83;21108;-61
2022/02/15 02:39:12;;;;;;;3.75;2.02;;;;;;;3.27;82.50;148486.94;1696067;84;21040;-67
2022/02/15 02:41:38;;;;;;;7.45;2.15;;;;;;;3.26;82.69;148484.34;1692737;84;20957;-60
2022/02/15 02:44:06;;;;;;;5.10;1.80;;;;;;;3.28;82.76;148489.50;1686957;83;22198;-60
2022/02/15 02:46:33;;;;;;;8.15;1.70;;;;;;;3.30;82.53;148495.92;1682021;84;21092;-60
2022/02/15 02:49:00;;;;;;;6.87;2.35;;;;;;;3.28;82.26;148489.50;1708025;83;21140;-60
2022/02/15 02:51:28;;;;;;;4.03;1.90;;;;;;;3.28;82.08;148489.50;1709616;83;21052;-60
2022/02/15 02:53:55;;;;;;;4.97;2.05;;;;;;;3.27;81.99;148488.19;1702306;83;21565;-61
2022/02/15 02:56:22;;;;;;;4.42;1.92;;;;;;;3.27;81.70;148486.94;1707728;83;22175;-60
2022/02/15 02:58:50;;;;;;;8.68;2.70;;;;;;;3.23;81.47;148476.61;1708520;83;21137;-61
2022/02/15 03:01:17;;;;;;;6.83;2.60;;;;;;;3.19;81.24;148467.56;1687116;83;21909;-61
2022/02/15 03:03:44;;;;;;;9.90;2.25;;;;;;;3.15;80.99;148458.52;1692146;84;21053;-60
2022/02/15 03:06:11;;;;;;;7.28;2.25;;;;;;;3.10;80.87;148445.62;1695525;83;21072;-61
2022/02/15 03:08:39;;;;;;;6.58;2.15;;;;;;;3.06;80.74;148435.31;1687570;84;21038;-61
2022/02/15 03:11:06;;;;;;;4.67;1.95;;;;;;;3.05;80.72;148432.73;1688954;84;21179;-61
2022/02/15 03:13:35;;;;;;;3.67;1.80;;;;;;;3.07;80.54;148436.58;1687874;84;21497;-61
2022/02/15 03:16:05;;;;;;;5.92;1.67;;;;;;;3.05;80.27;148432.73;1688896;84;21582;-61
2022/02/15 03:18:32;;;;;;;4.00;1.87;;;;;;;3.06;80.11;148435.31;1690385;83;21056;-61
2022/02/15 03:21:01;;;;;;;3.95;1.80;;;;;;;3.05;79.85;148432.73;1689702;84;21100;-62
2022/02/15 03:23:29;;;;;;;2.80;1.60;;;;;;;3.03;79.75;148427.58;1690338;84;20993;-62
2022/02/15 03:25:56;;;;;;;3.50;1.80;;;;;;;3.02;79.62;148425.00;1691329;83;21083;-60
2022/02/15 03:28:24;;;;;;;6.33;2.00;;;;;;;2.99;79.58;148417.27;1685433;84;21043;-63
2022/02/15 03:30:51;;;;;;;2.87;1.80;;;;;;;2.99;79.73;148417.27;1658859;84;20933;-61
2022/02/15 03:33:18;;;;;;;5.25;2.12;;;;;;;3.03;79.54;148427.58;1689173;84;21104;-62
2022/02/15 03:35:45;;;;;;;6.75;2.20;;;;;;;3.04;79.31;148430.16;1688973;84;21047;-60
2022/02/15 03:38:13;;;;;;;4.62;2.37;;;;;;;3.04;79.26;148430.16;1703964;83;21075;-61
2022/02/15 03:43:28;;;;;;;9.10;3.90;;;;;;;3.00;79.56;148419.84;1702966;82;21068;-61
2022/02/15 03:45:57;;;;;;;12.30;5.28;;;;;;;2.93;80.07;148401.75;1693647;83;21071;-60
2022/02/15 03:48:29;;;;;;;20.92;7.87;;;;;;;2.83;80.63;148378.55;1676400;84;21084;-60
2022/02/15 03:50:56;;;;;;;14.05;6.55;;;;;;;2.73;81.30;148352.72;1688539;84;21075;-61
2022/02/15 03:53:23;;;;;;;13.35;7.10;;;;;;;2.69;81.91;148342.42;1704357;84;21049;-61
2022/02/15 03:55:50;;;;;;;16.80;8.10;;;;;;;2.63;82.40;148326.95;1694434;84;21019;-67
2022/02/15 03:58:18;;;;;;;15.70;7.62;;;;;;;2.52;82.84;148301.13;1676382;85;21076;-68
2022/02/15 04:00:45;;;;;;;17.85;8.45;;;;;;;2.45;83.40;148283.09;1688727;84;21091;-67
2022/02/15 04:03:16;;;;;;;19.50;8.63;;;;;;;2.38;83.93;148265.06;1703343;83;21435;-60
2022/02/15 04:05:44;;;;;;;21.42;10.08;;;;;;;2.34;84.50;148256.02;1671168;83;21105;-60
2022/02/15 04:08:11;;;;;;;24.45;9.80;;;;;;;2.33;84.95;148252.17;1688933;84;21040;-61
2022/02/15 04:10:38;;;;;;;23.45;9.75;;;;;;;2.29;85.15;148244.39;1686599;84;21072;-61
2022/02/15 04:13:07;;;;;;;22.62;9.70;;;;;;;2.24;85.36;148231.52;1661823;85;21035;-61
2022/02/15 04:15:34;;;;;;;22.48;10.63;;;;;;;2.18;85.62;148216.06;1684019;84;21112;-61
2022/02/15 04:18:01;;;;;;;21.10;10.82;;;;;;;2.12;85.89;148200.59;1693500;84;21070;-68
2022/02/15 04:20:28;;;;;;;25.30;11.03;;;;;;;2.09;86.21;148192.81;1676747;85;21056;-68
2022/02/15 04:22:55;;;;;;;24.37;11.18;;;;;;;2.04;86.33;148179.94;1688997;84;21595;-60
2022/02/15 04:25:21;;;;;;;27.85;11.20;;;;;;;1.96;86.65;148161.91;1684563;83;22151;-67
2022/02/15 04:27:49;;;;;;;26.02;11.97;;;;;;;1.95;86.92;148158.02;1693598;83;21136;-66
2022/02/15 04:30:16;;;;;;;29.75;11.33;;;;;;;1.90;87.04;148145.14;1707997;83;21732;-63
2022/02/15 04:32:45;;;;;;;28.42;12.07;;;;;;;1.85;87.27;148134.84;1665691;85;21230;-64
2022/02/15 04:35:11;;;;;;;36.03;13.30;;;;;;;1.80;87.45;148121.97;1680317;85;21048;-60
2022/02/15 04:37:39;;;;;;;26.48;12.28;;;;;;;1.78;87.63;148115.50;1693617;84;21060;-69
2022/02/15 04:40:07;;;;;;;29.48;11.75;;;;;;;1.74;87.69;148105.19;1708581;83;21112;-61
2022/02/15 04:42:35;;;;;;;25.00;12.07;;;;;;;1.71;87.85;148100.05;1677031;85;21590;-60
2022/02/15 04:45:03;;;;;;;30.68;12.15;;;;;;;1.67;87.88;148089.75;1687007;83;22147;-61
2022/02/15 04:47:32;;;;;;;27.42;10.78;;;;;;;1.64;88.19;148081.97;1680920;84;21051;-61
2022/02/15 04:49:58;;;;;;;22.70;11.78;;;;;;;1.69;88.39;148094.89;1691594;84;21048;-66
2022/02/15 04:52:25;;;;;;;25.35;11.25;;;;;;;1.69;88.19;148094.89;1691063;84;21111;-60
2022/02/15 04:54:52;;;;;;;29.15;11.43;;;;;;;1.68;88.10;148091.00;1691366;84;21574;-62
2022/02/15 04:57:19;;;;;;;29.12;11.28;;;;;;;1.65;87.77;148083.28;1697088;84;21099;-67
2022/02/15 04:59:46;;;;;;;22.27;10.72;;;;;;;1.59;87.75;148069.09;1694737;84;21061;-62
2022/02/15 05:02:14;;;;;;;21.07;9.95;;;;;;;1.57;87.83;148063.94;1689151;84;21052;-61
2022/02/15 05:04:51;;;;;;;23.83;9.68;;;;;;;1.56;87.75;148062.69;1691472;84;21209;-67
2022/02/15 05:07:21;;;;;;;20.75;9.70;;;;;;;1.56;87.72;148061.37;1697611;84;21498;-67
2022/02/15 05:09:48;;;;;;;19.20;10.10;;;;;;;1.56;87.57;148061.37;1700390;83;21064;-62
2022/02/15 05:12:17;;;;;;;25.35;9.55;;;;;;;1.55;87.47;148058.78;1694112;83;21132;-67
2022/02/15 05:14:44;;;;;;;23.85;10.28;;;;;;;1.53;87.32;148053.64;1675469;84;21622;-61
2022/02/15 05:17:14;;;;;;;22.58;9.80;;;;;;;1.50;87.22;148045.91;1689134;84;21856;-67
2022/02/15 05:19:43;;;;;;;21.23;10.55;;;;;;;1.45;87.23;148033.05;1691889;84;21128;-67
2022/02/15 05:22:10;;;;;;;21.73;10.28;;;;;;;1.43;87.14;148029.16;1691585;84;21116;-68
2022/02/15 05:24:50;;;;;;;18.17;9.20;;;;;;;1.40;87.32;148022.69;1692154;84;21542;-67
2022/02/15 05:27:19;;;;;;;25.90;10.58;;;;;;;1.45;87.55;148033.05;1691426;83;21049;-60
2022/02/15 05:29:50;;;;;;;21.17;9.68;;;;;;;1.52;87.40;148051.06;1688324;84;21154;-61
2022/02/15 05:32:32;;;;;;;20.08;10.18;;;;;;;1.54;87.15;148057.48;1691676;84;21024;-61
2022/02/15 05:35:00;;;;;;;22.67;9.40;;;;;;;1.54;86.89;148056.22;1691781;84;21108;-67
2022/02/15 05:37:29;;;;;;;21.30;9.13;;;;;;;1.51;86.60;148048.50;1687163;84;21223;-61
2022/02/15 05:39:56;;;;;;;21.77;9.88;;;;;;;1.45;86.41;148034.31;1693881;84;21036;-61
2022/02/15 05:42:31;;;;;;;19.65;10.45;;;;;;;1.38;86.39;148017.55;1682438;84;21995;-61
2022/02/15 05:44:59;;;;;;;29.23;11.70;;;;;;;1.37;86.58;148013.72;1691725;83;21278;-61
2022/02/15 05:47:26;;;;;;;25.27;11.53;;;;;;;1.36;86.61;148012.39;1698529;83;21084;-67
2022/02/15 05:52:39;;;;;;;21.93;11.33;;;;;;;1.35;86.67;148009.81;1681834;84;21073;-66
2022/02/15 05:55:10;;;;;;;26.25;13.18;;;;;;;1.34;86.54;148005.98;1691723;83;20981;-67
2022/02/15 05:57:36;;;;;;;29.80;13.38;;;;;;;1.31;86.63;147999.53;1692254;84;21045;-69
2022/02/15 06:00:10;;;;;;;33.30;13.90;;;;;;;1.34;86.82;148005.98;1691942;83;21037;-66
2022/02/15 06:02:43;;;;;;;34.63;15.55;;;;;;;1.39;86.92;148020.13;1664409;86;20994;-68
2022/02/15 06:05:12;;;;;;;38.42;15.98;;;;;;;1.47;87.05;148038.19;1671435;84;20957;-67
2022/02/15 06:07:41;;;;;;;35.08;16.23;;;;;;;1.56;86.97;148061.37;1691655;83;21498;-68
2022/02/15 06:10:16;;;;;;;40.33;15.53;;;;;;;1.62;86.72;148076.81;1680384;84;21049;-67
2022/02/15 06:12:45;;;;;;;42.35;17.32;;;;;;;1.65;86.36;148084.55;1664249;86;21128;-61
2022/02/15 06:15:12;;;;;;;44.85;17.15;;;;;;;1.68;86.16;148092.31;1673507;84;21033;-68
2022/02/15 06:17:41;;;;;;;36.98;16.17;;;;;;;1.75;86.07;148107.77;1682348;84;20977;-67
2022/02/15 06:20:10;;;;;;;35.75;15.08;;;;;;;1.82;85.69;148127.11;1698844;83;21540;-66
2022/02/15 06:22:40;;;;;;;37.93;15.93;;;;;;;1.91;85.59;148147.72;1692802;84;21450;-68
2022/02/15 06:25:08;;;;;;;33.13;14.10;;;;;;;2.02;85.26;148176.09;1696425;84;21062;-67
2022/02/15 06:27:44;;;;;;;28.65;14.25;;;;;;;2.13;84.92;148203.17;1693400;82;21096;-67
2022/02/15 06:30:22;;;;;;;32.05;12.25;;;;;;;2.21;84.28;148222.47;1691108;84;21020;-68
2022/02/15 06:32:51;;;;;;;26.48;11.30;;;;;;;2.26;83.79;148236.66;1691257;84;21601;-68
2022/02/15 06:35:18;;;;;;;21.95;10.43;;;;;;;2.33;83.47;148252.17;1690932;84;21096;-69
2022/02/15 06:37:50;;;;;;;29.55;10.35;;;;;;;2.43;83.12;148279.25;1663652;85;20982;-68
2022/02/15 06:40:18;;;;;;;20.50;9.53;;;;;;;2.52;82.54;148301.13;1689023;84;21044;-61
2022/02/15 06:42:47;;;;;;;21.20;9.98;;;;;;;2.65;82.30;148332.11;1646837;85;21084;-61
2022/02/15 06:45:15;;;;;;;25.43;10.90;;;;;;;2.81;81.86;148373.41;1683369;83;21139;-61
2022/02/15 06:47:43;;;;;;;27.65;11.35;;;;;;;2.95;81.36;148406.91;1692742;83;21087;-61
2022/02/15 06:50:10;;;;;;;22.25;10.70;;;;;;;3.07;80.91;148437.89;1692219;84;21060;-69
2022/02/15 06:52:38;;;;;;;25.45;9.73;;;;;;;3.20;80.45;148468.83;1671466;84;21045;-69
2022/02/15 06:55:09;;;;;;;21.90;10.23;;;;;;;3.28;79.68;148490.78;1694438;84;20973;-67
2022/02/15 06:57:38;;;;;;;20.82;8.65;;;;;;;3.33;79.21;148502.41;1664394;84;21115;-67
2022/02/15 07:00:06;;;;;;;15.58;7.35;;;;;;;3.40;78.91;148520.45;1677850;83;21083;-67
2022/02/15 07:02:36;;;;;;;17.57;8.53;;;;;;;3.51;78.23;148546.28;1680774;84;21088;-68
2022/02/15 07:05:06;;;;;;;17.15;6.85;;;;;;;3.61;77.39;148572.09;1697305;83;21096;-68
2022/02/15 07:07:34;;;;;;;15.05;5.10;;;;;;;3.69;77.00;148591.45;1686305;84;21000;-67
2022/02/15 07:10:05;;;;;;;15.18;5.55;;;;;;;3.81;76.42;148621.14;1686276;84;21425;-68
2022/02/15 07:12:44;;;;;;;12.85;5.00;;;;;;;3.91;75.90;148645.67;1686481;84;21621;-68
2022/02/15 07:15:19;;;;;;;13.58;4.33;;;;;;;4.12;74.64;148698.64;1678442;84;21085;-68
2022/02/15 07:17:51;;;;;;;9.18;4.37;;;;;;;4.12;74.64;148698.64;1663944;85;21585;-68
2022/02/15 07:20:19;;;;;;;16.75;4.90;;;;;;;4.20;73.75;148719.28;1686769;83;21626;-68
2022/02/15 07:22:54;;;;;;;5.67;3.17;;;;;;;4.32;73.15;148747.72;1647541;85;21189;-68
2022/02/15 07:25:29;;;;;;;8.65;3.35;;;;;;;4.43;72.40;148776.11;1702615;82;21119;-68
2022/02/15 07:28:01;;;;;;;15.05;4.20;;;;;;;4.51;71.38;148796.75;1698362;83;22223;-68
2022/02/15 07:30:27;;;;;;;10.15;3.35;;;;;;;4.57;70.75;148812.28;1682411;84;21566;-68
2022/02/15 07:32:59;;;;;;;7.22;2.30;;;;;;;4.65;70.12;148830.36;1683939;84;21198;-67
2022/02/15 07:35:26;;;;;;;3.33;1.80;;;;;;;4.70;69.20;148843.27;1684394;84;21619;-68
2022/02/15 07:37:53;;;;;;;5.58;2.17;;;;;;;4.71;68.42;148845.84;1703219;83;21156;-62
2022/02/15 07:40:21;;;;;;;4.58;2.15;;;;;;;4.72;67.79;148848.44;1699903;83;21075;-62
2022/02/15 07:42:49;;;;;;;4.58;2.27;;;;;;;4.72;67.57;148849.75;1677975;84;21542;-61
2022/02/15 07:45:20;;;;;;;6.90;2.40;;;;;;;4.76;67.28;148857.50;1688447;84;21163;-61
2022/02/15 07:47:55;;;;;;;8.48;2.72;;;;;;;4.88;66.90;148889.78;1689563;84;21133;-62
2022/02/15 07:50:23;;;;;;;8.73;2.25;;;;;;;4.88;66.90;148889.78;1684984;84;21091;-62
2022/02/15 07:52:57;;;;;;;6.80;2.72;;;;;;;4.94;66.36;148902.69;1683100;84;21084;-62
2022/02/15 07:55:26;;;;;;;8.18;3.15;;;;;;;4.99;65.82;148915.66;1681585;84;21546;-61
2022/02/15 07:57:53;;;;;;;6.97;2.85;;;;;;;5.01;65.50;148920.81;1682409;84;21071;-61
2022/02/15 08:00:22;;;;;;;8.98;2.52;;;;;;;5.04;65.27;148928.56;1689431;84;21143;-62
2022/02/15 08:02:52;;;;;;;7.28;4.22;;;;;;;5.08;65.13;148938.91;1684143;84;21104;-63
2022/02/15 08:05:21;;;;;;;8.08;3.47;;;;;;;5.14;64.84;148953.13;1686573;83;21081;-62
2022/02/15 08:07:52;;;;;;;6.95;3.05;;;;;;;5.13;64.71;148950.53;1680032;83;21180;-62
2022/02/15 08:10:22;;;;;;;12.60;2.95;;;;;;;5.13;64.67;148951.81;1679498;83;21549;-61
2022/02/15 08:12:58;;;;;;;9.43;3.45;;;;;;;5.12;64.66;148949.22;1683832;84;21313;-62
2022/02/15 08:15:27;;;;;;;6.00;2.20;;;;;;;5.11;64.73;148946.64;1678206;84;21087;-61
2022/02/15 08:17:54;;;;;;;7.25;2.72;;;;;;;5.08;64.51;148938.91;1676997;83;21056;-63
2022/02/15 08:20:21;;;;;;;6.87;2.80;;;;;;;5.04;64.58;148928.56;1683472;84;21423;-60
2022/02/15 08:22:48;;;;;;;8.03;3.05;;;;;;;5.02;64.86;148923.41;1685614;84;20985;-61
2022/02/15 08:25:15;;;;;;;11.73;2.60;;;;;;;5.03;64.59;148925.98;1685734;84;21153;-62
2022/02/15 08:27:42;;;;;;;6.25;2.60;;;;;;;5.03;64.59;148925.98;1683295;83;21468;-62
2022/02/15 08:30:13;;;;;;;8.30;2.80;;;;;;;5.06;64.58;148932.41;1700849;83;21052;-61
2022/02/15 08:32:40;;;;;;;6.12;2.95;;;;;;;5.06;64.51;148933.73;1702573;82;21041;-61
2022/02/15 08:35:10;;;;;;;7.83;2.77;;;;;;;5.08;64.53;148937.58;1699831;84;21061;-62
2022/02/15 08:37:45;;;;;;;10.20;3.17;;;;;;;5.06;64.54;148933.73;1698389;83;22365;-63
2022/02/15 08:40:13;;;;;;;6.10;2.75;;;;;;;5.06;64.64;148932.41;1698596;83;21649;-62
2022/02/15 08:42:42;;;;;;;15.78;3.60;;;;;;;5.08;64.47;148938.91;1699277;83;20973;-63
2022/02/15 08:45:11;;;;;;;9.28;3.37;;;;;;;5.07;64.31;148935.00;1698439;82;21273;-61
2022/02/15 08:47:40;;;;;;;6.37;2.67;;;;;;;5.06;64.14;148933.73;1702330;82;21056;-62
2022/02/15 08:50:08;;;;;;;6.25;2.58;;;;;;;5.09;64.22;148940.22;1697384;83;21562;-62
2022/02/15 08:52:37;;;;;;;4.80;2.45;;;;;;;5.10;64.08;148944.06;1699415;84;20997;-60
2022/02/15 08:55:08;;;;;;;6.85;2.85;;;;;;;5.10;63.98;148944.06;1699385;83;21065;-61
2022/02/15 08:57:39;;;;;;;4.90;2.50;;;;;;;5.09;64.13;148941.47;1703676;82;21598;-61
2022/02/15 09:00:08;;;;;;;7.60;2.80;;;;;;;5.05;64.05;148931.16;1698803;83;21072;-68
2022/02/15 09:02:38;;;;;;;10.95;2.65;;;;;;;5.00;63.92;148918.23;1701433;83;21057;-68
2022/02/15 09:05:09;;;;;;;7.22;2.55;;;;;;;4.97;63.89;148910.44;1698657;83;21615;-67
2022/02/15 09:07:38;;;;;;;5.62;2.70;;;;;;;4.95;64.18;148905.28;1692637;83;21045;-68
2022/02/15 09:10:07;;;;;;;5.17;2.62;;;;;;;4.94;64.26;148902.69;1692617;82;21571;-68
2022/02/15 09:12:37;;;;;;;3.72;2.20;;;;;;;4.91;64.31;148896.27;1697023;83;20957;-65
2022/02/15 09:15:06;;;;;;;5.58;2.50;;;;;;;4.88;64.83;148889.78;1696322;83;22426;-66
2022/02/15 09:17:38;;;;;;;9.48;3.10;;;;;;;4.86;64.87;148884.63;1696011;83;21097;-68
2022/02/15 09:20:06;;;;;;;8.93;3.10;;;;;;;4.83;65.54;148876.88;1696535;84;21037;-68
2022/02/15 09:22:33;;;;;;;10.95;2.92;;;;;;;4.85;66.75;148882.05;1696207;83;21088;-68
2022/02/15 09:24:59;;;;;;;10.48;2.95;;;;;;;4.85;66.75;148882.05;1698140;83;21136;-67
2022/02/15 09:27:26;;;;;;;6.72;2.83;;;;;;;4.90;67.15;148892.38;1700041;83;21912;-68
2022/02/15 09:29:57;;;;;;;8.98;3.35;;;;;;;4.95;67.29;148906.59;1683071;83;21748;-68
2022/02/15 09:32:24;;;;;;;10.70;3.40;;;;;;;5.00;67.42;148919.50;1686570;84;21016;-69
2022/02/15 09:34:51;;;;;;;4.85;2.65;;;;;;;5.04;67.60;148928.56;1687255;84;22318;-68
2022/02/15 09:37:18;;;;;;;8.95;3.20;;;;;;;5.09;67.48;148941.47;1686223;84;21044;-68
2022/02/15 09:39:48;;;;;;;8.58;2.83;;;;;;;5.13;67.60;148951.81;1682145;84;21882;-68
2022/02/15 09:42:15;;;;;;;9.15;3.15;;;;;;;5.16;67.36;148958.28;1684585;84;21170;-69
2022/02/15 09:44:42;;;;;;;6.97;2.97;;;;;;;5.19;67.70;148966.03;1686500;84;21103;-69
2022/02/15 09:47:09;;;;;;;9.93;3.58;;;;;;;5.23;68.02;148976.37;1684407;84;21695;-69
2022/02/15 09:49:49;;;;;;;10.63;3.90;;;;;;;5.29;68.34;148990.59;1704157;83;21072;-68
2022/02/15 09:52:19;;;;;;;9.30;3.25;;;;;;;5.31;68.47;148995.77;1685855;84;21140;-70
2022/02/15 09:54:46;;;;;;;10.75;4.28;;;;;;;5.29;68.62;148990.59;1684973;84;21080;-70
2022/02/15 09:57:14;;;;;;;6.97;2.90;;;;;;;5.26;68.91;148982.84;1683906;84;21071;-68
2022/02/15 09:59:41;;;;;;;8.68;3.58;;;;;;;5.26;68.98;148982.84;1706913;82;21059;-68
2022/02/15 10:02:12;;;;;;;7.25;3.10;;;;;;;5.26;68.90;148982.84;1704952;82;35449;-69
2022/02/15 10:04:40;;;;;;;7.25;3.15;;;;;;;5.26;68.78;148982.84;1707252;82;21772;-69
2022/02/15 10:07:08;;;;;;;7.45;2.60;;;;;;;5.27;68.65;148985.44;1671469;84;21570;-70
2022/02/15 10:09:37;;;;;;;13.50;3.70;;;;;;;5.25;68.55;148981.53;1678535;83;21125;-68
2022/02/15 10:12:11;;;;;;;7.03;2.75;;;;;;;5.22;68.36;148972.52;1658530;84;22182;-70
2022/02/15 10:14:42;;;;;;;6.85;2.67;;;;;;;5.18;68.29;148962.14;1685029;84;21140;-69
2022/02/15 10:17:14;;;;;;;5.83;2.55;;;;;;;5.09;68.09;148941.47;1688359;84;21115;-68
2022/02/15 10:19:43;;;;;;;8.98;3.05;;;;;;;5.05;68.23;148929.84;1689748;84;21039;-69
2022/02/15 10:22:10;;;;;;;9.05;3.08;;;;;;;5.04;68.34;148928.56;1673024;84;21056;-68
2022/02/15 10:24:39;;;;;;;7.30;3.25;;;;;;;5.05;68.45;148931.16;1682912;84;21588;-69
2022/02/15 10:27:08;;;;;;;6.20;2.60;;;;;;;5.06;68.51;148933.73;1688226;84;21049;-69
2022/02/15 10:32:01;;;;;;;6.70;2.73;;;;;;;5.16;68.53;148959.56;1826804;77;23662;-70
2022/02/15 10:34:28;;;;;;;7.22;2.60;;;;;;;5.13;68.40;148951.81;1789404;78;21469;-68
2022/02/15 10:37:05;;;;;;;5.92;2.50;;;;;;;5.18;68.25;148962.14;1783869;78;21375;-66
2022/02/15 10:39:48;;;;;;;7.05;2.40;;;;;;;5.20;68.01;148967.34;1784307;78;21504;-68
2022/02/15 10:42:17;;;;;;;5.25;2.55;;;;;;;5.23;68.24;148975.09;1777855;79;21003;-68
2022/02/15 10:45:05;;;;;;;5.17;3.25;;;;;;;5.28;68.44;148988.02;1784502;78;21076;-66
2022/02/15 10:47:35;;;;;;;4.78;2.50;;;;;;;5.30;68.61;148993.19;1777491;79;21012;-65
2022/02/15 10:50:08;;;;;;;5.58;2.55;;;;;;;5.29;68.56;148990.59;1782461;78;21512;-70
2022/02/15 10:52:35;;;;;;;5.87;2.27;;;;;;;5.27;68.68;148985.44;1791914;78;20997;-67
2022/02/15 10:55:04;;;;;;;5.62;2.65;;;;;;;5.27;68.73;148985.44;1785163;78;21157;-67
2022/02/15 10:57:32;;;;;;;5.83;2.92;;;;;;;5.28;69.14;148988.02;1782061;78;21501;-67
2022/02/15 11:00:03;;;;;;;11.93;3.85;;;;;;;5.29;69.25;148991.86;1783163;78;21362;-66
2022/02/15 11:02:31;;;;;;;7.75;3.10;;;;;;;5.33;69.55;148999.66;1787377;78;21139;-67
2022/02/15 11:05:02;;;;;;;6.17;3.05;;;;;;;5.33;69.81;149000.92;1789816;78;21060;-67
2022/02/15 11:07:32;;;;;;;7.37;2.55;;;;;;;5.35;69.97;149004.83;1785752;78;21074;-67
2022/02/15 11:10:21;;;;;;;9.80;2.95;;;;;;;5.32;70.01;148998.34;1785460;78;21158;-68
2022/02/15 11:12:59;;;;;;;10.03;4.58;;;;;;;5.26;70.30;148982.84;1779279;78;21033;-60
2022/02/15 11:15:34;;;;;;;8.48;2.87;;;;;;;5.20;70.40;148967.34;1780147;78;21245;-61
2022/02/15 11:18:04;;;;;;;9.63;3.00;;;;;;;5.14;70.42;148953.13;1774165;78;21075;-62
2022/02/15 11:20:54;;;;;;;8.13;2.62;;;;;;;5.07;70.92;148936.31;1777814;79;21115;-61
2022/02/15 11:23:23;;;;;;;5.83;3.00;;;;;;;5.04;71.24;148928.56;1766075;78;21103;-67
2022/02/15 11:25:52;;;;;;;7.15;3.20;;;;;;;4.98;71.25;148914.34;1772106;79;21126;-67
2022/02/15 11:28:23;;;;;;;5.83;2.50;;;;;;;4.97;71.60;148911.75;1777269;78;21293;-67
2022/02/15 11:31:01;;;;;;;5.45;2.47;;;;;;;4.94;71.96;148902.69;1774288;78;21114;-62
2022/02/15 11:33:37;;;;;;;7.92;2.40;;;;;;;4.94;72.43;148902.69;1779424;78;21545;-61
2022/02/15 11:36:08;;;;;;;11.08;2.55;;;;;;;4.92;72.82;148898.84;1792190;79;21012;-61
2022/02/15 11:38:36;;;;;;;6.00;2.27;;;;;;;4.92;72.66;148898.84;1787816;78;20966;-62
2022/02/15 11:41:05;;;;;;;5.47;2.10;;;;;;;4.89;72.50;148891.09;1757922;78;22470;-61
2022/02/15 11:43:32;;;;;;;7.70;2.15;;;;;;;4.83;72.39;148876.88;1786768;78;21008;-61
2022/02/15 11:46:00;;;;;;;6.35;1.90;;;;;;;4.79;72.54;148866.56;1787718;78;21682;-62
2022/02/15 11:48:40;;;;;;;6.72;1.90;;;;;;;4.71;72.80;148847.17;1781063;78;21529;-60